Time;durP1;ratioP1;P1;durP2;ratioP2;P2;SDS_P1;SDS_P2;PMS_P1;PMS_P2;Temp;Humidity;BMP_temperature;BMP_pressure;BME280_temperature;BME280_humidity;BME280_pressure;Samples;Min_cycle;Max_cycle;Signal;HPM_P1;HPM_P2
2022/06/30 00:00:11;;;;;;;5.55;4.63;;;;;;;;;;5032897;28;20227;-83
2022/06/30 00:02:38;;;;;;;5.70;4.63;;;;;;;;;;5033743;28;20282;-83
2022/06/30 00:05:07;;;;;;;5.50;4.50;;;;;;;;;;5033127;28;20247;-84
2022/06/30 00:07:34;;;;;;;6.53;5.03;;;;;;;;;;5033019;28;20695;-84
2022/06/30 00:10:02;;;;;;;6.78;4.75;;;;;;;;;;5032934;28;20260;-83
2022/06/30 00:12:29;;;;;;;5.57;4.85;;;;;;;;;;5033424;28;20204;-83
2022/06/30 00:14:56;;;;;;;7.70;5.18;;;;;;;;;;5027294;28;20239;-83
2022/06/30 00:17:23;;;;;;;5.20;4.75;;;;;;;;;;5015802;28;20211;-83
2022/06/30 00:19:50;;;;;;;7.93;4.95;;;;;;;;;;5014175;28;20250;-83
2022/06/30 00:22:18;;;;;;;5.60;5.07;;;;;;;;;;5015086;28;20234;-83
2022/06/30 00:24:45;;;;;;;7.72;5.00;;;;;;;;;;5014066;28;20270;-83
2022/06/30 00:27:12;;;;;;;5.20;4.57;;;;;;;;;;5014703;28;20211;-83
2022/06/30 00:29:39;;;;;;;4.95;4.55;;;;;;;;;;5013478;28;20246;-84
2022/06/30 00:32:07;;;;;;;5.07;4.68;;;;;;;;;;5014274;28;20575;-83
2022/06/30 00:34:34;;;;;;;5.72;5.20;;;;;;;;;;5013206;28;20235;-83
2022/06/30 00:37:01;;;;;;;5.13;4.72;;;;;;;;;;5014781;28;20207;-84
2022/06/30 00:39:30;;;;;;;6.15;5.22;;;;;;;;;;5014026;28;20263;-84
2022/06/30 00:41:57;;;;;;;5.30;4.80;;;;;;;;;;5014723;28;20734;-84
2022/06/30 00:44:24;;;;;;;5.78;5.18;;;;;;;;;;5014444;28;20619;-83
2022/06/30 00:46:51;;;;;;;6.95;5.22;;;;;;;;;;5014164;28;20719;-84
2022/06/30 00:49:20;;;;;;;6.45;5.85;;;;;;;;;;5013987;28;20243;-84
2022/06/30 00:51:47;;;;;;;6.70;5.53;;;;;;;;;;5014027;28;20615;-83
2022/06/30 00:54:14;;;;;;;6.88;5.32;;;;;;;;;;5012939;28;20247;-83
2022/06/30 00:56:43;;;;;;;6.30;5.38;;;;;;;;;;5014372;28;20212;-83
2022/06/30 00:59:11;;;;;;;6.35;5.75;;;;;;;;;;5013296;28;20231;-83
2022/06/30 01:01:38;;;;;;;6.05;5.38;;;;;;;;;;5011912;28;20241;-83
2022/06/30 01:04:08;;;;;;;5.90;5.30;;;;;;;;;;4990072;28;20236;-83
2022/06/30 01:06:35;;;;;;;6.25;5.75;;;;;;;;;;4996666;28;20564;-83
2022/06/30 01:09:05;;;;;;;8.75;5.78;;;;;;;;;;4994606;28;20266;-83
2022/06/30 01:14:18;;;;;;;6.75;6.13;;;;;;;;;;4994401;28;20265;-83
2022/06/30 01:16:46;;;;;;;5.90;5.30;;;;;;;;;;5007378;28;20211;-83
2022/06/30 01:19:13;;;;;;;8.18;5.93;;;;;;;;;;5000033;28;20235;-83
2022/06/30 01:21:41;;;;;;;6.00;5.50;;;;;;;;;;5002954;28;20232;-83
2022/06/30 01:24:08;;;;;;;6.35;5.75;;;;;;;;;;5008857;28;20258;-83
2022/06/30 01:26:36;;;;;;;6.88;5.55;;;;;;;;;;5025756;28;20212;-83
2022/06/30 01:29:07;;;;;;;8.02;6.10;;;;;;;;;;5019012;28;20239;-83
2022/06/30 01:31:34;;;;;;;5.80;5.30;;;;;;;;;;5015472;28;20680;-83
2022/06/30 01:34:01;;;;;;;6.15;5.65;;;;;;;;;;5014865;28;20230;-83
2022/06/30 01:36:28;;;;;;;6.70;5.78;;;;;;;;;;5022909;28;20211;-83
2022/06/30 01:38:56;;;;;;;6.32;5.72;;;;;;;;;;5012904;28;20223;-83
2022/06/30 01:41:23;;;;;;;7.53;5.82;;;;;;;;;;5013412;28;20314;-83
2022/06/30 01:43:50;;;;;;;6.80;5.50;;;;;;;;;;5012664;28;20635;-83
2022/06/30 01:46:21;;;;;;;7.63;5.93;;;;;;;;;;5012754;28;20231;-83
2022/06/30 01:48:48;;;;;;;7.28;5.95;;;;;;;;;;5012491;28;20655;-83
2022/06/30 01:51:15;;;;;;;7.70;5.78;;;;;;;;;;5013154;28;20203;-83
2022/06/30 01:53:42;;;;;;;6.75;6.15;;;;;;;;;;5012355;28;20231;-83
2022/06/30 01:56:11;;;;;;;5.90;5.40;;;;;;;;;;5012705;28;20250;-83
2022/06/30 01:58:38;;;;;;;6.85;5.93;;;;;;;;;;5012620;28;20266;-83
2022/06/30 02:01:05;;;;;;;7.40;5.90;;;;;;;;;;5012861;28;20211;-83
2022/06/30 02:03:32;;;;;;;6.32;5.60;;;;;;;;;;5012308;28;20207;-83
2022/06/30 02:05:59;;;;;;;6.63;6.03;;;;;;;;;;5012625;28;20234;-83
2022/06/30 02:08:26;;;;;;;6.55;5.72;;;;;;;;;;5012563;28;20204;-83
2022/06/30 02:10:53;;;;;;;6.28;5.68;;;;;;;;;;5013562;28;20236;-83
2022/06/30 02:13:21;;;;;;;5.60;5.10;;;;;;;;;;5012011;28;20647;-83
2022/06/30 02:15:48;;;;;;;6.18;5.57;;;;;;;;;;5012988;28;20227;-83
2022/06/30 02:18:15;;;;;;;6.20;5.68;;;;;;;;;;5013212;28;20285;-83
2022/06/30 02:20:43;;;;;;;6.60;5.85;;;;;;;;;;5013019;28;20211;-83
2022/06/30 02:23:10;;;;;;;7.85;5.88;;;;;;;;;;5012516;28;20235;-83
2022/06/30 02:25:37;;;;;;;6.97;5.47;;;;;;;;;;5012249;28;20239;-83
2022/06/30 02:28:05;;;;;;;7.65;5.38;;;;;;;;;;5012302;28;20622;-83
2022/06/30 02:30:34;;;;;;;6.10;5.53;;;;;;;;;;5012065;28;20322;-83
2022/06/30 02:33:01;;;;;;;6.80;5.55;;;;;;;;;;5012554;28;20233;-83
2022/06/30 02:35:28;;;;;;;6.30;5.70;;;;;;;;;;5012193;28;20235;-83
2022/06/30 02:37:56;;;;;;;7.50;5.38;;;;;;;;;;5012817;28;20219;-83
2022/06/30 02:40:23;;;;;;;6.47;5.60;;;;;;;;;;5012090;28;20258;-83
2022/06/30 02:42:50;;;;;;;8.85;6.18;;;;;;;;;;5012943;28;20227;-82
2022/06/30 02:45:17;;;;;;;6.70;5.57;;;;;;;;;;5021243;28;20239;-83
2022/06/30 02:47:46;;;;;;;6.65;6.05;;;;;;;;;;5013346;28;20227;-83
2022/06/30 02:50:13;;;;;;;6.25;5.65;;;;;;;;;;5012910;28;20318;-83
2022/06/30 02:52:42;;;;;;;7.35;5.50;;;;;;;;;;5013059;28;20215;-83
2022/06/30 02:55:09;;;;;;;6.53;5.60;;;;;;;;;;5011799;28;20243;-83
2022/06/30 02:57:37;;;;;;;7.45;6.18;;;;;;;;;;5012004;28;20204;-83
2022/06/30 03:00:05;;;;;;;7.50;6.38;;;;;;;;;;5015227;28;20320;-83
2022/06/30 03:02:32;;;;;;;7.75;5.90;;;;;;;;;;5016045;28;20236;-83
2022/06/30 03:05:01;;;;;;;8.30;6.40;;;;;;;;;;5039529;22;20221;-80
2022/06/30 03:07:28;;;;;;;6.90;6.30;;;;;;;;;;5031179;28;20788;-82
2022/06/30 03:09:55;;;;;;;6.60;6.00;;;;;;;;;;5041578;28;20242;-82
2022/06/30 03:12:25;;;;;;;6.80;6.20;;;;;;;;;;5041453;28;20207;-81
2022/06/30 03:14:53;;;;;;;8.95;6.07;;;;;;;;;;5041290;28;20757;-81
2022/06/30 03:17:20;;;;;;;6.82;5.85;;;;;;;;;;5042668;28;20569;-82
2022/06/30 03:19:47;;;;;;;6.78;6.18;;;;;;;;;;5041020;28;20238;-82
2022/06/30 03:22:15;;;;;;;6.43;5.85;;;;;;;;;;5041920;28;20229;-82
2022/06/30 03:24:42;;;;;;;7.07;6.05;;;;;;;;;;5040471;28;20250;-81
2022/06/30 03:27:09;;;;;;;6.50;5.90;;;;;;;;;;5041341;28;20210;-81
2022/06/30 03:29:36;;;;;;;9.45;6.20;;;;;;;;;;5040377;28;20722;-81
2022/06/30 03:32:03;;;;;;;8.30;5.63;;;;;;;;;;5041205;28;20213;-83
2022/06/30 03:34:30;;;;;;;9.80;5.93;;;;;;;;;;5040434;28;20238;-82
2022/06/30 03:36:58;;;;;;;9.77;6.20;;;;;;;;;;5040764;28;20230;-82
2022/06/30 03:39:26;;;;;;;7.43;6.20;;;;;;;;;;5040567;28;20234;-82
2022/06/30 03:41:53;;;;;;;9.07;5.80;;;;;;;;;;5040265;28;20702;-81
2022/06/30 03:44:20;;;;;;;11.13;6.45;;;;;;;;;;5040123;28;20242;-82
2022/06/30 03:46:47;;;;;;;10.53;6.37;;;;;;;;;;5040552;28;20234;-83
2022/06/30 03:49:15;;;;;;;14.93;7.83;;;;;;;;;;5040322;28;20333;-82
2022/06/30 03:51:42;;;;;;;11.90;6.10;;;;;;;;;;5040350;28;20248;-81
2022/06/30 03:54:09;;;;;;;8.20;5.80;;;;;;;;;;5039933;28;20733;-82
2022/06/30 03:56:38;;;;;;;6.30;5.70;;;;;;;;;;5040357;28;20218;-82
2022/06/30 03:59:05;;;;;;;7.63;5.73;;;;;;;;;;5040708;28;20238;-82
2022/06/30 04:01:32;;;;;;;6.87;6.17;;;;;;;;;;5041023;28;20207;-81
2022/06/30 04:03:59;;;;;;;7.73;5.90;;;;;;;;;;5038981;28;20230;-81
2022/06/30 04:06:26;;;;;;;8.07;6.10;;;;;;;;;;5040207;28;20246;-82
2022/06/30 04:08:53;;;;;;;13.97;6.60;;;;;;;;;;5039204;28;20245;-82
2022/06/30 04:11:20;;;;;;;7.87;7.07;;;;;;;;;;5037735;28;20581;-81
2022/06/30 04:13:48;;;;;;;7.83;6.63;;;;;;;;;;5038548;28;20234;-82
2022/06/30 04:16:15;;;;;;;9.33;6.80;;;;;;;;;;5039908;28;20223;-82
2022/06/30 04:18:42;;;;;;;10.03;6.83;;;;;;;;;;5039065;28;20238;-81
2022/06/30 04:21:09;;;;;;;8.57;7.17;;;;;;;;;;5041232;28;20234;-81
2022/06/30 04:23:37;;;;;;;11.33;7.37;;;;;;;;;;5041180;28;20331;-82
2022/06/30 04:26:04;;;;;;;9.37;7.50;;;;;;;;;;5042914;28;20230;-81
2022/06/30 04:28:31;;;;;;;9.60;7.43;;;;;;;;;;5042332;28;20562;-80
2022/06/30 04:33:45;;;;;;;14.87;7.87;;;;;;;;;;5041632;28;20289;-81
2022/06/30 04:36:12;;;;;;;14.53;7.20;;;;;;;;;;5041723;28;20226;-80
2022/06/30 04:38:39;;;;;;;16.10;8.07;;;;;;;;;;5040956;28;20234;-82
2022/06/30 04:41:23;;;;;;;11.57;8.17;;;;;;;;;;5040833;28;20211;-81
2022/06/30 04:43:50;;;;;;;17.43;7.63;;;;;;;;;;5040533;28;20237;-81
2022/06/30 04:46:19;;;;;;;15.87;8.13;;;;;;;;;;5041748;28;20305;-80
2022/06/30 04:48:46;;;;;;;10.77;8.13;;;;;;;;;;5041351;28;20234;-81
2022/06/30 04:51:13;;;;;;;12.57;8.60;;;;;;;;;;5041815;28;20215;-81
2022/06/30 04:53:41;;;;;;;9.67;8.67;;;;;;;;;;5041275;28;20238;-80
2022/06/30 04:56:08;;;;;;;10.43;8.70;;;;;;;;;;5041292;28;20257;-81
2022/06/30 04:58:35;;;;;;;9.87;8.13;;;;;;;;;;5041862;28;20745;-81
2022/06/30 05:01:03;;;;;;;11.17;8.77;;;;;;;;;;5041610;28;20207;-81
2022/06/30 05:03:31;;;;;;;10.00;8.63;;;;;;;;;;5040938;28;20234;-81
2022/06/30 05:05:58;;;;;;;12.90;8.93;;;;;;;;;;5040945;28;20264;-81
2022/06/30 05:08:26;;;;;;;12.53;9.83;;;;;;;;;;5040749;28;20210;-81
2022/06/30 05:10:53;;;;;;;12.93;10.20;;;;;;;;;;5040463;28;20213;-80
2022/06/30 05:13:20;;;;;;;16.53;9.67;;;;;;;;;;5039653;28;20207;-80
2022/06/30 05:15:47;;;;;;;18.10;11.27;;;;;;;;;;5040576;28;20231;-80
2022/06/30 05:18:14;;;;;;;21.27;11.63;;;;;;;;;;5041012;28;20206;-80
2022/06/30 05:20:43;;;;;;;13.20;10.93;;;;;;;;;;5040439;28;20576;-80
2022/06/30 05:23:11;;;;;;;17.37;10.87;;;;;;;;;;5040461;28;20230;-80
2022/06/30 05:28:23;;;;;;;12.83;11.10;;;;;;;;;;5042160;28;20229;-80
2022/06/30 05:30:50;;;;;;;14.85;10.80;;;;;;;;;;5041996;28;20211;-80
2022/06/30 05:33:19;;;;;;;10.93;9.73;;;;;;;;;;5041881;28;20214;-80
2022/06/30 05:35:48;;;;;;;16.95;9.70;;;;;;;;;;5040225;28;20226;-80
2022/06/30 05:38:15;;;;;;;14.27;10.63;;;;;;;;;;5039600;28;20207;-80
2022/06/30 05:40:42;;;;;;;11.88;9.80;;;;;;;;;;5039835;28;20226;-80
2022/06/30 05:43:11;;;;;;;10.95;8.88;;;;;;;;;;5040339;28;20222;-80
2022/06/30 05:45:38;;;;;;;15.60;9.82;;;;;;;;;;5039365;28;20238;-80
2022/06/30 05:48:06;;;;;;;12.15;9.10;;;;;;;;;;5040786;28;20266;-80
2022/06/30 05:50:33;;;;;;;11.73;8.82;;;;;;;;;;5040139;28;20226;-81
2022/06/30 05:53:01;;;;;;;13.93;9.18;;;;;;;;;;5040766;28;20206;-79
2022/06/30 05:55:28;;;;;;;12.65;8.77;;;;;;;;;;5040015;28;20238;-80
2022/06/30 05:57:56;;;;;;;10.38;8.32;;;;;;;;;;5040626;28;20206;-80
2022/06/30 06:00:25;;;;;;;14.50;7.93;;;;;;;;;;5038468;28;20227;-80
2022/06/30 06:02:52;;;;;;;9.95;7.32;;;;;;;;;;5022349;28;20235;-81
2022/06/30 06:05:19;;;;;;;12.88;7.78;;;;;;;;;;5018815;28;20246;-80
2022/06/30 06:07:47;;;;;;;11.90;7.63;;;;;;;;;;5018352;28;20735;-80
2022/06/30 06:10:15;;;;;;;9.13;7.40;;;;;;;;;;5018675;28;20241;-80
2022/06/30 06:12:43;;;;;;;7.80;7.00;;;;;;;;;;5021498;28;20203;-80
2022/06/30 06:15:10;;;;;;;9.57;7.93;;;;;;;;;;5019449;28;20245;-80
2022/06/30 06:17:41;;;;;;;11.30;7.50;;;;;;;;;;5019589;28;20223;-80
2022/06/30 06:20:08;;;;;;;10.55;6.20;;;;;;;;;;5018179;28;20242;-81
2022/06/30 06:22:36;;;;;;;7.50;6.75;;;;;;;;;;5020993;28;20229;-80
2022/06/30 06:25:03;;;;;;;7.85;6.65;;;;;;;;;;5019241;28;20235;-80
2022/06/30 06:27:31;;;;;;;8.82;6.28;;;;;;;;;;5013158;28;20210;-80
2022/06/30 06:29:58;;;;;;;8.10;6.03;;;;;;;;;;5012674;28;20235;-80
2022/06/30 06:32:25;;;;;;;8.77;5.40;;;;;;;;;;5013020;28;20214;-80
2022/06/30 06:34:52;;;;;;;7.63;6.20;;;;;;;;;;5015857;28;20235;-81
2022/06/30 06:37:19;;;;;;;9.82;5.35;;;;;;;;;;5018316;28;20211;-80
2022/06/30 06:39:46;;;;;;;6.03;5.53;;;;;;;;;;5022325;28;20239;-80
2022/06/30 06:42:13;;;;;;;6.70;5.45;;;;;;;;;;5022654;28;20691;-80
2022/06/30 06:44:42;;;;;;;13.75;6.03;;;;;;;;;;5021030;28;20235;-80
2022/06/30 06:47:09;;;;;;;6.85;5.20;;;;;;;;;;5022603;28;20203;-80
2022/06/30 06:49:36;;;;;;;5.63;5.05;;;;;;;;;;5021633;28;20239;-81
2022/06/30 06:52:04;;;;;;;7.70;5.82;;;;;;;;;;5022364;28;20215;-81
2022/06/30 06:54:31;;;;;;;5.75;5.18;;;;;;;;;;5022123;28;20227;-80
2022/06/30 06:56:58;;;;;;;5.43;4.93;;;;;;;;;;5021068;28;20236;-81
2022/06/30 06:59:25;;;;;;;6.47;4.65;;;;;;;;;;5021969;28;20238;-81
2022/06/30 07:01:53;;;;;;;4.65;4.25;;;;;;;;;;5022310;28;20208;-81
2022/06/30 07:04:20;;;;;;;5.10;4.57;;;;;;;;;;5020789;28;20235;-81
2022/06/30 07:06:48;;;;;;;7.47;4.10;;;;;;;;;;5021628;28;20235;-81
2022/06/30 07:09:15;;;;;;;5.15;4.18;;;;;;;;;;5021776;28;20289;-81
2022/06/30 07:11:42;;;;;;;6.40;4.13;;;;;;;;;;5023088;28;20218;-81
2022/06/30 07:14:09;;;;;;;5.55;4.28;;;;;;;;;;5021770;28;20238;-81
2022/06/30 07:16:36;;;;;;;6.30;4.10;;;;;;;;;;5021846;28;20223;-81
2022/06/30 07:19:05;;;;;;;4.70;4.30;;;;;;;;;;5020775;28;20235;-81
2022/06/30 07:21:32;;;;;;;4.78;4.05;;;;;;;;;;5021060;28;20210;-81
2022/06/30 07:23:59;;;;;;;4.70;4.30;;;;;;;;;;5020853;28;20231;-81
2022/06/30 07:26:26;;;;;;;4.10;3.80;;;;;;;;;;5021907;28;20220;-81
2022/06/30 07:28:53;;;;;;;4.80;4.30;;;;;;;;;;5021414;28;20238;-82
2022/06/30 07:31:21;;;;;;;9.05;4.55;;;;;;;;;;5020933;28;20226;-81
2022/06/30 07:33:48;;;;;;;7.18;3.95;;;;;;;;;;5021204;28;20664;-81
2022/06/30 07:36:16;;;;;;;4.40;4.00;;;;;;;;;;5021311;28;20232;-81
2022/06/30 07:38:44;;;;;;;6.43;4.15;;;;;;;;;;5021459;28;20231;-81
2022/06/30 07:41:12;;;;;;;4.30;3.90;;;;;;;;;;5021443;28;20207;-82
2022/06/30 07:43:39;;;;;;;4.30;3.92;;;;;;;;;;5020761;28;20335;-81
2022/06/30 07:46:06;;;;;;;4.78;4.35;;;;;;;;;;5020824;28;20255;-81
2022/06/30 07:48:33;;;;;;;6.47;4.32;;;;;;;;;;5020573;28;20214;-82
2022/06/30 07:51:01;;;;;;;4.32;3.97;;;;;;;;;;5021392;28;20577;-82
2022/06/30 07:53:29;;;;;;;6.45;4.40;;;;;;;;;;5020111;28;20215;-82
2022/06/30 07:55:56;;;;;;;5.15;4.00;;;;;;;;;;5021234;28;20426;-82
2022/06/30 07:58:23;;;;;;;6.72;4.68;;;;;;;;;;5020771;28;20207;-81
2022/06/30 08:00:50;;;;;;;5.30;4.72;;;;;;;;;;5028677;28;20209;-81
2022/06/30 08:03:17;;;;;;;5.18;4.68;;;;;;;;;;5039822;28;20225;-82
2022/06/30 08:05:44;;;;;;;8.85;4.18;;;;;;;;;;5041104;28;20674;-82
2022/06/30 08:08:11;;;;;;;4.82;4.00;;;;;;;;;;5040790;28;20225;-81
2022/06/30 08:10:40;;;;;;;5.97;4.30;;;;;;;;;;5042875;28;20234;-82
2022/06/30 08:13:07;;;;;;;5.10;4.13;;;;;;;;;;5039679;28;20234;-81
2022/06/30 08:15:34;;;;;;;5.00;4.47;;;;;;;;;;5039296;28;20257;-82
2022/06/30 08:18:02;;;;;;;4.95;4.43;;;;;;;;;;5039071;28;20218;-82
2022/06/30 08:20:29;;;;;;;6.40;4.07;;;;;;;;;;5039282;28;20234;-82
2022/06/30 08:22:56;;;;;;;4.35;3.97;;;;;;;;;;5038624;28;20706;-82
2022/06/30 08:25:24;;;;;;;4.32;3.92;;;;;;;;;;5037421;28;20234;-82
2022/06/30 08:27:52;;;;;;;4.90;4.40;;;;;;;;;;5038922;28;20655;-82
2022/06/30 08:30:19;;;;;;;4.82;4.35;;;;;;;;;;5037929;28;20246;-81
2022/06/30 08:32:46;;;;;;;6.22;4.07;;;;;;;;;;5038433;28;20222;-82
2022/06/30 08:35:14;;;;;;;7.97;5.07;;;;;;;;;;5037633;28;20246;-82
2022/06/30 08:37:41;;;;;;;5.00;4.40;;;;;;;;;;5038113;28;20233;-81
2022/06/30 08:42:54;;;;;;;4.28;3.88;;;;;;;;;;5038118;28;20650;-82
2022/06/30 08:45:24;;;;;;;4.25;3.95;;;;;;;;;;5037608;28;20658;-82
2022/06/30 08:47:51;;;;;;;4.00;3.60;;;;;;;;;;5037866;28;20211;-82
2022/06/30 08:50:19;;;;;;;5.05;3.97;;;;;;;;;;5037303;28;20261;-82
2022/06/30 08:52:48;;;;;;;4.93;3.70;;;;;;;;;;5038714;28;20229;-82
2022/06/30 08:55:15;;;;;;;4.45;3.97;;;;;;;;;;5037973;28;20242;-82
2022/06/30 08:57:43;;;;;;;4.00;3.60;;;;;;;;;;5037801;28;20206;-82
2022/06/30 09:00:13;;;;;;;6.32;4.15;;;;;;;;;;5035300;28;20234;-80
2022/06/30 09:02:40;;;;;;;6.28;3.85;;;;;;;;;;5019564;28;20210;-81
2022/06/30 09:05:07;;;;;;;4.20;3.80;;;;;;;;;;5016777;28;20738;-82
2022/06/30 09:07:35;;;;;;;4.32;3.55;;;;;;;;;;5013456;28;20650;-80
2022/06/30 09:10:02;;;;;;;4.20;3.80;;;;;;;;;;5012873;28;20285;-82
2022/06/30 09:12:29;;;;;;;3.90;3.60;;;;;;;;;;5013350;28;20207;-81
2022/06/30 09:14:56;;;;;;;5.35;4.28;;;;;;;;;;5012711;28;20734;-82
2022/06/30 09:17:25;;;;;;;4.28;3.90;;;;;;;;;;5013708;28;20226;-81
2022/06/30 09:19:58;;;;;;;6.65;4.40;;;;;;;;;;5020769;28;20707;-82
2022/06/30 09:22:26;;;;;;;4.30;3.90;;;;;;;;;;5013651;28;20196;-81
2022/06/30 09:24:57;;;;;;;3.80;3.50;;;;;;;;;;5012662;28;20242;-82
2022/06/30 09:27:24;;;;;;;3.65;3.30;;;;;;;;;;5013568;28;20207;-82
2022/06/30 09:29:55;;;;;;;4.82;3.17;;;;;;;;;;5013034;28;20231;-81
2022/06/30 09:32:24;;;;;;;3.58;2.38;;;;;;;;;;5013594;28;20205;-82
2022/06/30 09:34:52;;;;;;;2.47;2.25;;;;;;;;;;5012674;28;20742;-84
2022/06/30 09:37:20;;;;;;;3.25;2.95;;;;;;;;;;5013527;28;20306;-82
2022/06/30 09:39:48;;;;;;;3.92;2.85;;;;;;;;;;5012896;28;20239;-83
2022/06/30 09:42:15;;;;;;;5.57;3.67;;;;;;;;;;5013570;28;20215;-82
2022/06/30 09:44:49;;;;;;;3.78;2.70;;;;;;;;;;5012506;28;20239;-82
2022/06/30 09:47:17;;;;;;;3.58;3.00;;;;;;;;;;5013571;28;20237;-82
2022/06/30 09:49:47;;;;;;;3.50;3.22;;;;;;;;;;5012725;28;21030;-82
2022/06/30 09:52:19;;;;;;;3.50;3.00;;;;;;;;;;5013387;28;20214;-83
2022/06/30 09:54:55;;;;;;;3.13;2.72;;;;;;;;;;5012979;28;20730;-82
2022/06/30 09:57:23;;;;;;;3.72;2.85;;;;;;;;;;5014022;28;20226;-82
2022/06/30 09:59:59;;;;;;;3.10;2.75;;;;;;;;;;5032876;28;20227;-79
2022/06/30 10:02:33;;;;;;;2.63;2.42;;;;;;;;;;5057731;28;20190;-80
2022/06/30 10:05:02;;;;;;;7.25;2.67;;;;;;;;;;5051050;28;20238;-82
2022/06/30 10:07:29;;;;;;;2.83;2.60;;;;;;;;;;5045929;28;20210;-83
2022/06/30 10:09:56;;;;;;;2.83;2.30;;;;;;;;;;5043158;28;20233;-82
2022/06/30 10:12:24;;;;;;;3.95;2.75;;;;;;;;;;5044991;28;20207;-83
2022/06/30 10:14:53;;;;;;;3.13;2.70;;;;;;;;;;5043597;28;20237;-83
2022/06/30 10:17:20;;;;;;;3.63;2.60;;;;;;;;;;5044888;28;20210;-83
2022/06/30 10:19:48;;;;;;;3.08;2.60;;;;;;;;;;5042094;28;20238;-83
2022/06/30 10:22:16;;;;;;;3.28;2.70;;;;;;;;;;5042723;28;20209;-83
2022/06/30 10:24:45;;;;;;;2.53;2.35;;;;;;;;;;5042493;28;20233;-83
2022/06/30 10:27:13;;;;;;;3.63;3.00;;;;;;;;;;5042211;28;20210;-82
2022/06/30 10:29:40;;;;;;;3.25;2.83;;;;;;;;;;5041118;28;20718;-83
2022/06/30 10:32:10;;;;;;;4.30;2.80;;;;;;;;;;5046200;28;20658;-82
2022/06/30 10:34:40;;;;;;;2.83;2.60;;;;;;;;;;5039980;28;20238;-82
2022/06/30 10:37:11;;;;;;;2.88;2.13;;;;;;;;;;5034275;28;20209;-82
2022/06/30 10:39:47;;;;;;;4.00;2.50;;;;;;;;;;5031614;28;20242;-83
2022/06/30 10:42:29;;;;;;;3.17;2.50;;;;;;;;;;5032005;28;20209;-82
2022/06/30 10:44:56;;;;;;;2.70;2.50;;;;;;;;;;5030975;28;20237;-83
2022/06/30 10:47:23;;;;;;;2.58;2.30;;;;;;;;;;5031705;28;20210;-83
2022/06/30 10:49:55;;;;;;;3.42;2.25;;;;;;;;;;5031168;28;20744;-82
2022/06/30 10:52:24;;;;;;;4.00;3.03;;;;;;;;;;5031871;28;20202;-83
2022/06/30 10:54:59;;;;;;;2.40;2.20;;;;;;;;;;5030800;28;20222;-83
2022/06/30 10:57:26;;;;;;;2.75;2.55;;;;;;;;;;5031738;28;20229;-83
2022/06/30 10:59:53;;;;;;;3.65;2.65;;;;;;;;;;5030300;28;20229;-81
2022/06/30 11:02:22;;;;;;;5.82;2.63;;;;;;;;;;5011798;28;20199;-83
2022/06/30 11:04:50;;;;;;;2.70;2.50;;;;;;;;;;5010783;28;20322;-83
2022/06/30 11:07:20;;;;;;;3.05;2.53;;;;;;;;;;5011831;28;20206;-83
2022/06/30 11:10:05;;;;;;;2.42;2.22;;;;;;;;;;5019990;28;20243;-83
2022/06/30 11:12:51;;;;;;;2.45;2.20;;;;;;;;;;5012545;28;20636;-83
2022/06/30 11:15:20;;;;;;;3.80;2.20;;;;;;;;;;5011937;28;20242;-82
2022/06/30 11:17:48;;;;;;;2.78;2.58;;;;;;;;;;5012133;28;20230;-83
2022/06/30 11:20:15;;;;;;;2.65;2.33;;;;;;;;;;5013541;28;20718;-84
2022/06/30 11:22:43;;;;;;;7.53;2.15;;;;;;;;;;5015745;28;20206;-83
2022/06/30 11:25:11;;;;;;;2.90;2.30;;;;;;;;;;5014873;28;20235;-83
2022/06/30 11:27:38;;;;;;;2.60;2.40;;;;;;;;;;5015166;28;20218;-82
2022/06/30 11:30:07;;;;;;;2.25;2.08;;;;;;;;;;5014917;28;20321;-83
2022/06/30 11:32:36;;;;;;;2.78;2.40;;;;;;;;;;5014786;28;20215;-83
2022/06/30 11:35:03;;;;;;;3.75;2.05;;;;;;;;;;5014379;28;20235;-81
2022/06/30 11:37:33;;;;;;;3.45;2.55;;;;;;;;;;5014929;28;20237;-83
2022/06/30 11:40:00;;;;;;;2.30;2.10;;;;;;;;;;5014439;28;20603;-84
2022/06/30 11:42:28;;;;;;;2.22;2.10;;;;;;;;;;5014927;28;20217;-83
2022/06/30 11:44:55;;;;;;;3.92;2.28;;;;;;;;;;5014148;28;20246;-83
2022/06/30 11:47:23;;;;;;;2.50;2.30;;;;;;;;;;5014690;28;20199;-83
2022/06/30 11:49:52;;;;;;;3.00;2.30;;;;;;;;;;5014216;28;20234;-83
2022/06/30 11:52:21;;;;;;;2.40;2.20;;;;;;;;;;5014779;28;20217;-82
2022/06/30 11:54:50;;;;;;;2.30;2.10;;;;;;;;;;5013916;28;20254;-83
2022/06/30 11:57:17;;;;;;;4.38;2.35;;;;;;;;;;5014568;28;20211;-83
2022/06/30 11:59:45;;;;;;;1.83;1.73;;;;;;;;;;5014246;28;20242;-83
2022/06/30 12:02:12;;;;;;;2.88;2.28;;;;;;;;;;5033968;28;20198;-83
2022/06/30 12:04:41;;;;;;;4.68;2.08;;;;;;;;;;5034483;28;20238;-84
2022/06/30 12:07:10;;;;;;;2.95;2.33;;;;;;;;;;5034643;28;20280;-83
2022/06/30 12:09:37;;;;;;;2.33;2.13;;;;;;;;;;5034121;28;20237;-83
2022/06/30 12:12:05;;;;;;;2.35;2.15;;;;;;;;;;5035346;28;20210;-83
2022/06/30 12:14:32;;;;;;;3.67;1.90;;;;;;;;;;5034556;28;20256;-83
2022/06/30 12:17:00;;;;;;;1.75;1.65;;;;;;;;;;5035056;28;20637;-83
2022/06/30 12:19:27;;;;;;;2.50;2.30;;;;;;;;;;5033842;28;20238;-83
2022/06/30 12:21:55;;;;;;;2.08;1.90;;;;;;;;;;5034536;28;20202;-83
2022/06/30 12:24:24;;;;;;;2.45;2.25;;;;;;;;;;5033265;28;20766;-82
2022/06/30 12:26:52;;;;;;;4.47;2.30;;;;;;;;;;5033892;28;20257;-83
2022/06/30 12:29:20;;;;;;;2.42;1.95;;;;;;;;;;5033384;28;20241;-83
2022/06/30 12:31:58;;;;;;;3.38;2.10;;;;;;;;;;5032708;28;21224;-83
2022/06/30 12:34:25;;;;;;;4.57;1.65;;;;;;;;;;5033199;28;20331;-83
2022/06/30 12:36:52;;;;;;;3.75;2.13;;;;;;;;;;5033638;28;20222;-83
2022/06/30 12:39:20;;;;;;;7.32;2.22;;;;;;;;;;5033045;28;20617;-83
2022/06/30 12:41:48;;;;;;;1.83;1.73;;;;;;;;;;5033435;28;20217;-82
2022/06/30 12:44:15;;;;;;;2.30;2.10;;;;;;;;;;5032736;28;20230;-82
2022/06/30 12:46:45;;;;;;;2.10;1.90;;;;;;;;;;5033176;28;20234;-83
2022/06/30 12:49:21;;;;;;;1.98;1.83;;;;;;;;;;5033115;28;20568;-83
2022/06/30 12:51:49;;;;;;;2.22;2.03;;;;;;;;;;5033285;28;20305;-83
2022/06/30 12:54:17;;;;;;;2.72;2.47;;;;;;;;;;5032641;28;20601;-83
2022/06/30 12:56:50;;;;;;;2.22;1.88;;;;;;;;;;5033233;28;20225;-83
2022/06/30 12:59:19;;;;;;;2.10;1.98;;;;;;;;;;5032761;28;20635;-82
2022/06/30 13:01:46;;;;;;;4.40;1.80;;;;;;;;;;5017038;28;20207;-83
2022/06/30 13:04:19;;;;;;;4.20;1.98;;;;;;;;;;5012714;28;20657;-83
2022/06/30 13:06:47;;;;;;;2.10;2.00;;;;;;;;;;5012987;28;20258;-83
2022/06/30 13:09:14;;;;;;;1.98;1.80;;;;;;;;;;5012874;28;20238;-83
2022/06/30 13:11:45;;;;;;;2.13;1.80;;;;;;;;;;5013164;28;20222;-83
2022/06/30 13:14:12;;;;;;;2.13;1.80;;;;;;;;;;5012612;28;20320;-83
2022/06/30 13:16:41;;;;;;;2.45;1.75;;;;;;;;;;5012857;28;20222;-83
2022/06/30 13:19:08;;;;;;;1.80;1.70;;;;;;;;;;5012502;28;20649;-82
2022/06/30 13:21:35;;;;;;;3.20;1.65;;;;;;;;;;5012993;28;20203;-83
2022/06/30 13:24:03;;;;;;;1.75;1.50;;;;;;;;;;5012363;28;20579;-83
2022/06/30 13:26:30;;;;;;;3.70;1.80;;;;;;;;;;5012447;28;20227;-83
2022/06/30 13:28:57;;;;;;;1.70;1.55;;;;;;;;;;5012449;28;20227;-83
2022/06/30 13:31:24;;;;;;;1.73;1.63;;;;;;;;;;5013023;28;20210;-83
2022/06/30 13:33:53;;;;;;;2.22;2.03;;;;;;;;;;5012226;28;20234;-83
2022/06/30 13:36:21;;;;;;;3.17;1.70;;;;;;;;;;5012949;28;20233;-83
2022/06/30 13:38:48;;;;;;;3.88;1.90;;;;;;;;;;5012674;28;20226;-83
2022/06/30 13:41:15;;;;;;;2.83;1.80;;;;;;;;;;5013269;28;20626;-82
2022/06/30 13:43:43;;;;;;;2.13;1.83;;;;;;;;;;5012059;28;20230;-82
2022/06/30 13:46:10;;;;;;;1.67;1.58;;;;;;;;;;5012654;28;20645;-83
2022/06/30 13:48:37;;;;;;;3.05;1.70;;;;;;;;;;5012337;28;20234;-82
2022/06/30 13:51:05;;;;;;;2.67;1.48;;;;;;;;;;5012657;28;20214;-83
2022/06/30 13:53:32;;;;;;;2.05;1.95;;;;;;;;;;5011722;28;20590;-83
2022/06/30 13:55:59;;;;;;;1.65;1.52;;;;;;;;;;5012374;28;20703;-83
2022/06/30 13:58:26;;;;;;;2.42;1.70;;;;;;;;;;5012036;28;20210;-83
2022/06/30 14:00:53;;;;;;;3.35;2.05;;;;;;;;;;5012658;28;20253;-82
2022/06/30 14:03:21;;;;;;;1.73;1.40;;;;;;;;;;5011600;28;20667;-83
2022/06/30 14:05:48;;;;;;;2.08;1.48;;;;;;;;;;5012247;28;20235;-83
2022/06/30 14:08:16;;;;;;;1.65;1.55;;;;;;;;;;5012562;28;20217;-83
2022/06/30 14:10:43;;;;;;;1.70;1.60;;;;;;;;;;5012138;28;20219;-83
2022/06/30 14:13:11;;;;;;;2.67;1.95;;;;;;;;;;5012042;28;20207;-82
2022/06/30 14:15:38;;;;;;;1.80;1.70;;;;;;;;;;5011640;28;20242;-83
2022/06/30 14:18:05;;;;;;;1.52;1.42;;;;;;;;;;5012408;28;20213;-83
2022/06/30 14:20:33;;;;;;;2.45;2.00;;;;;;;;;;5011669;28;20273;-82
2022/06/30 14:23:00;;;;;;;2.08;1.70;;;;;;;;;;5012181;28;20210;-83
2022/06/30 14:25:29;;;;;;;2.30;1.50;;;;;;;;;;5011437;28;20250;-80
2022/06/30 14:27:56;;;;;;;2.45;1.40;;;;;;;;;;5012349;28;20207;-82
2022/06/30 14:30:23;;;;;;;1.65;1.55;;;;;;;;;;5011762;28;20245;-82
2022/06/30 14:32:51;;;;;;;1.92;1.60;;;;;;;;;;5011957;28;20195;-83
2022/06/30 14:35:18;;;;;;;1.27;1.25;;;;;;;;;;5011390;28;20234;-83
2022/06/30 14:37:46;;;;;;;1.50;1.40;;;;;;;;;;5012539;28;20214;-82
2022/06/30 14:40:13;;;;;;;1.58;1.48;;;;;;;;;;5011781;28;20242;-82
2022/06/30 14:42:44;;;;;;;2.47;1.67;;;;;;;;;;5012047;28;20215;-82
2022/06/30 14:45:13;;;;;;;2.03;1.67;;;;;;;;;;5011272;28;20235;-83
2022/06/30 14:47:40;;;;;;;2.08;1.73;;;;;;;;;;5012259;28;20206;-81
2022/06/30 14:50:08;;;;;;;1.67;1.60;;;;;;;;;;5011692;28;20235;-82
2022/06/30 14:52:35;;;;;;;1.75;1.50;;;;;;;;;;5012231;28;20239;-83
2022/06/30 14:55:03;;;;;;;2.45;1.70;;;;;;;;;;5013118;28;20268;-81